sensor_id;sensor_type;location;lat;lon;timestamp;P1;P2;P0
73241;PMS5003;65659;49.234;-2.094;2023-03-05T00:01:04;2;2;
73241;PMS5003;65659;49.234;-2.094;2023-03-05T00:03:27;2;1;
73241;PMS5003;65659;49.234;-2.094;2023-03-05T00:05:55;0;0;
73241;PMS5003;65659;49.234;-2.094;2023-03-05T00:08:19;0;0;
73241;PMS5003;65659;49.234;-2.094;2023-03-05T00:10:44;1;1;
73241;PMS5003;65659;49.234;-2.094;2023-03-05T00:13:10;1;1;
73241;PMS5003;65659;49.234;-2.094;2023-03-05T00:15:39;1;1;
73241;PMS5003;65659;49.234;-2.094;2023-03-05T00:18:02;1;1;
73241;PMS5003;65659;49.234;-2.094;2023-03-05T00:20:27;0;0;
73241;PMS5003;65659;49.234;-2.094;2023-03-05T00:22:53;1;1;
73241;PMS5003;65659;49.234;-2.094;2023-03-05T00:25:19;1;1;
73241;PMS5003;65659;49.234;-2.094;2023-03-05T00:27:44;1;1;
73241;PMS5003;65659;49.234;-2.094;2023-03-05T00:30:11;1;1;
73241;PMS5003;65659;49.234;-2.094;2023-03-05T00:32:36;2;2;
73241;PMS5003;65659;49.234;-2.094;2023-03-05T00:35:02;0;0;
73241;PMS5003;65659;49.234;-2.094;2023-03-05T00:37:27;0;0;
73241;PMS5003;65659;49.234;-2.094;2023-03-05T00:39:53;0;0;
73241;PMS5003;65659;49.234;-2.094;2023-03-05T00:42:19;0;0;
73241;PMS5003;65659;49.234;-2.094;2023-03-05T00:44:45;0;0;
73241;PMS5003;65659;49.234;-2.094;2023-03-05T00:47:10;0;0;
73241;PMS5003;65659;49.234;-2.094;2023-03-05T00:49:36;0;0;
73241;PMS5003;65659;49.234;-2.094;2023-03-05T00:52:02;0;0;
73241;PMS5003;65659;49.234;-2.094;2023-03-05T00:54:27;0;0;
73241;PMS5003;65659;49.234;-2.094;2023-03-05T00:56:53;1;1;
73241;PMS5003;65659;49.234;-2.094;2023-03-05T00:59:19;1;0;
73241;PMS5003;65659;49.234;-2.094;2023-03-05T01:01:45;1;0;
73241;PMS5003;65659;49.234;-2.094;2023-03-05T01:04:10;1;0;
73241;PMS5003;65659;49.234;-2.094;2023-03-05T01:06:36;0;0;
73241;PMS5003;65659;49.234;-2.094;2023-03-05T01:09:02;1;1;
73241;PMS5003;65659;49.234;-2.094;2023-03-05T01:11:28;1;1;
73241;PMS5003;65659;49.234;-2.094;2023-03-05T01:13:53;1;1;
73241;PMS5003;65659;49.234;-2.094;2023-03-05T01:16:19;0;0;
73241;PMS5003;65659;49.234;-2.094;2023-03-05T01:18:45;0;0;
73241;PMS5003;65659;49.234;-2.094;2023-03-05T01:21:10;0;0;
73241;PMS5003;65659;49.234;-2.094;2023-03-05T01:23:36;0;0;
73241;PMS5003;65659;49.234;-2.094;2023-03-05T01:26:02;0;0;
73241;PMS5003;65659;49.234;-2.094;2023-03-05T01:28:28;0;0;
73241;PMS5003;65659;49.234;-2.094;2023-03-05T01:30:54;0;0;
73241;PMS5003;65659;49.234;-2.094;2023-03-05T01:33:19;0;0;
73241;PMS5003;65659;49.234;-2.094;2023-03-05T01:35:45;1;1;
73241;PMS5003;65659;49.234;-2.094;2023-03-05T01:38:11;0;0;
73241;PMS5003;65659;49.234;-2.094;2023-03-05T01:40:36;0;0;
73241;PMS5003;65659;49.234;-2.094;2023-03-05T01:43:07;1;1;
73241;PMS5003;65659;49.234;-2.094;2023-03-05T01:45:29;0;0;
73241;PMS5003;65659;49.234;-2.094;2023-03-05T01:47:54;1;1;
73241;PMS5003;65659;49.234;-2.094;2023-03-05T01:50:20;1;1;
73241;PMS5003;65659;49.234;-2.094;2023-03-05T01:52:47;0;0;
73241;PMS5003;65659;49.234;-2.094;2023-03-05T01:55:12;0;0;
73241;PMS5003;65659;49.234;-2.094;2023-03-05T01:57:37;1;1;
73241;PMS5003;65659;49.234;-2.094;2023-03-05T02:00:04;0;0;
73241;PMS5003;65659;49.234;-2.094;2023-03-05T02:02:28;0;0;
73241;PMS5003;65659;49.234;-2.094;2023-03-05T02:04:54;1;1;
73241;PMS5003;65659;49.234;-2.094;2023-03-05T02:07:19;0;0;
73241;PMS5003;65659;49.234;-2.094;2023-03-05T02:09:45;0;0;
73241;PMS5003;65659;49.234;-2.094;2023-03-05T02:12:11;0;0;
73241;PMS5003;65659;49.234;-2.094;2023-03-05T02:14:37;0;0;
73241;PMS5003;65659;49.234;-2.094;2023-03-05T02:17:02;0;0;
73241;PMS5003;65659;49.234;-2.094;2023-03-05T02:19:28;0;0;
73241;PMS5003;65659;49.234;-2.094;2023-03-05T02:21:54;1;1;
73241;PMS5003;65659;49.234;-2.094;2023-03-05T02:26:45;0;0;
73241;PMS5003;65659;49.234;-2.094;2023-03-05T02:29:12;0;0;
73241;PMS5003;65659;49.234;-2.094;2023-03-05T02:31:37;0;0;
73241;PMS5003;65659;49.234;-2.094;2023-03-05T02:34:03;0;0;
73241;PMS5003;65659;49.234;-2.094;2023-03-05T02:36:28;0;0;
73241;PMS5003;65659;49.234;-2.094;2023-03-05T02:38:54;2;1;
73241;PMS5003;65659;49.234;-2.094;2023-03-05T02:41:20;0;0;
73241;PMS5003;65659;49.234;-2.094;2023-03-05T02:43:45;0;0;
73241;PMS5003;65659;49.234;-2.094;2023-03-05T02:46:11;1;1;
73241;PMS5003;65659;49.234;-2.094;2023-03-05T02:48:37;1;1;
73241;PMS5003;65659;49.234;-2.094;2023-03-05T02:51:03;1;1;
73241;PMS5003;65659;49.234;-2.094;2023-03-05T02:53:28;1;1;
73241;PMS5003;65659;49.234;-2.094;2023-03-05T02:55:54;1;1;
73241;PMS5003;65659;49.234;-2.094;2023-03-05T02:58:20;0;0;
73241;PMS5003;65659;49.234;-2.094;2023-03-05T03:00:45;2;2;
73241;PMS5003;65659;49.234;-2.094;2023-03-05T03:03:11;1;1;
73241;PMS5003;65659;49.234;-2.094;2023-03-05T03:05:37;1;1;
73241;PMS5003;65659;49.234;-2.094;2023-03-05T03:08:03;1;1;
73241;PMS5003;65659;49.234;-2.094;2023-03-05T03:10:28;1;1;
73241;PMS5003;65659;49.234;-2.094;2023-03-05T03:12:54;0;0;
73241;PMS5003;65659;49.234;-2.094;2023-03-05T03:15:20;1;1;
73241;PMS5003;65659;49.234;-2.094;2023-03-05T03:17:46;1;1;
73241;PMS5003;65659;49.234;-2.094;2023-03-05T03:20:12;2;1;
73241;PMS5003;65659;49.234;-2.094;2023-03-05T03:22:37;0;0;
73241;PMS5003;65659;49.234;-2.094;2023-03-05T03:25:03;1;1;
73241;PMS5003;65659;49.234;-2.094;2023-03-05T03:27:28;0;0;
73241;PMS5003;65659;49.234;-2.094;2023-03-05T03:29:54;1;1;
73241;PMS5003;65659;49.234;-2.094;2023-03-05T03:32:20;1;1;
73241;PMS5003;65659;49.234;-2.094;2023-03-05T03:34:46;1;1;
73241;PMS5003;65659;49.234;-2.094;2023-03-05T03:37:12;0;0;
73241;PMS5003;65659;49.234;-2.094;2023-03-05T03:39:37;1;1;
73241;PMS5003;65659;49.234;-2.094;2023-03-05T03:42:03;1;1;
73241;PMS5003;65659;49.234;-2.094;2023-03-05T03:44:29;0;0;
73241;PMS5003;65659;49.234;-2.094;2023-03-05T03:46:54;2;1;
73241;PMS5003;65659;49.234;-2.094;2023-03-05T03:49:21;1;1;
73241;PMS5003;65659;49.234;-2.094;2023-03-05T03:51:46;0;0;
73241;PMS5003;65659;49.234;-2.094;2023-03-05T03:54:12;1;1;
73241;PMS5003;65659;49.234;-2.094;2023-03-05T03:56:37;1;1;
73241;PMS5003;65659;49.234;-2.094;2023-03-05T03:59:03;2;2;
73241;PMS5003;65659;49.234;-2.094;2023-03-05T04:01:29;1;1;
73241;PMS5003;65659;49.234;-2.094;2023-03-05T04:03:54;1;0;
73241;PMS5003;65659;49.234;-2.094;2023-03-05T04:06:20;0;0;
73241;PMS5003;65659;49.234;-2.094;2023-03-05T04:08:46;1;1;
73241;PMS5003;65659;49.234;-2.094;2023-03-05T04:11:12;1;1;
73241;PMS5003;65659;49.234;-2.094;2023-03-05T04:13:37;1;1;
73241;PMS5003;65659;49.234;-2.094;2023-03-05T04:16:03;0;0;
73241;PMS5003;65659;49.234;-2.094;2023-03-05T04:18:29;0;0;
73241;PMS5003;65659;49.234;-2.094;2023-03-05T04:20:55;1;0;
73241;PMS5003;65659;49.234;-2.094;2023-03-05T04:23:20;0;0;
73241;PMS5003;65659;49.234;-2.094;2023-03-05T04:25:46;0;0;
73241;PMS5003;65659;49.234;-2.094;2023-03-05T04:28:12;1;1;
73241;PMS5003;65659;49.234;-2.094;2023-03-05T04:30:37;1;1;
73241;PMS5003;65659;49.234;-2.094;2023-03-05T04:33:03;1;1;
73241;PMS5003;65659;49.234;-2.094;2023-03-05T04:35:29;0;0;
73241;PMS5003;65659;49.234;-2.094;2023-03-05T04:37:55;0;0;
73241;PMS5003;65659;49.234;-2.094;2023-03-05T04:40:20;1;0;
73241;PMS5003;65659;49.234;-2.094;2023-03-05T04:42:46;0;0;
73241;PMS5003;65659;49.234;-2.094;2023-03-05T04:45:11;0;0;
73241;PMS5003;65659;49.234;-2.094;2023-03-05T04:47:37;1;1;
73241;PMS5003;65659;49.234;-2.094;2023-03-05T04:50:03;1;1;
73241;PMS5003;65659;49.234;-2.094;2023-03-05T04:52:29;0;0;
73241;PMS5003;65659;49.234;-2.094;2023-03-05T04:54:54;1;1;
73241;PMS5003;65659;49.234;-2.094;2023-03-05T04:57:20;0;0;
73241;PMS5003;65659;49.234;-2.094;2023-03-05T04:59:46;0;0;
73241;PMS5003;65659;49.234;-2.094;2023-03-05T05:02:12;0;0;
73241;PMS5003;65659;49.234;-2.094;2023-03-05T05:04:37;1;0;
73241;PMS5003;65659;49.234;-2.094;2023-03-05T05:07:03;2;2;
73241;PMS5003;65659;49.234;-2.094;2023-03-05T05:09:29;2;1;
73241;PMS5003;65659;49.234;-2.094;2023-03-05T05:11:54;0;0;
73241;PMS5003;65659;49.234;-2.094;2023-03-05T05:14:20;1;1;
73241;PMS5003;65659;49.234;-2.094;2023-03-05T05:16:46;1;1;
73241;PMS5003;65659;49.234;-2.094;2023-03-05T05:19:12;0;0;
73241;PMS5003;65659;49.234;-2.094;2023-03-05T05:21:37;0;0;
73241;PMS5003;65659;49.234;-2.094;2023-03-05T05:24:04;0;0;
73241;PMS5003;65659;49.234;-2.094;2023-03-05T05:26:29;0;0;
73241;PMS5003;65659;49.234;-2.094;2023-03-05T05:28:55;1;1;
73241;PMS5003;65659;49.234;-2.094;2023-03-05T05:31:20;1;0;
73241;PMS5003;65659;49.234;-2.094;2023-03-05T05:33:46;1;1;
73241;PMS5003;65659;49.234;-2.094;2023-03-05T05:36:12;0;0;
73241;PMS5003;65659;49.234;-2.094;2023-03-05T05:38:38;0;0;
73241;PMS5003;65659;49.234;-2.094;2023-03-05T05:41:04;0;0;
73241;PMS5003;65659;49.234;-2.094;2023-03-05T05:43:29;1;1;
73241;PMS5003;65659;49.234;-2.094;2023-03-05T05:45:57;1;1;
73241;PMS5003;65659;49.234;-2.094;2023-03-05T05:48:20;1;1;
73241;PMS5003;65659;49.234;-2.094;2023-03-05T05:50:46;2;2;
73241;PMS5003;65659;49.234;-2.094;2023-03-05T05:53:12;0;0;
73241;PMS5003;65659;49.234;-2.094;2023-03-05T05:55:38;1;1;
73241;PMS5003;65659;49.234;-2.094;2023-03-05T05:58:03;1;1;
73241;PMS5003;65659;49.234;-2.094;2023-03-05T06:00:29;0;0;
73241;PMS5003;65659;49.234;-2.094;2023-03-05T06:02:55;0;0;
73241;PMS5003;65659;49.234;-2.094;2023-03-05T06:05:21;1;1;
73241;PMS5003;65659;49.234;-2.094;2023-03-05T06:07:46;0;0;
73241;PMS5003;65659;49.234;-2.094;2023-03-05T06:10:12;1;1;
73241;PMS5003;65659;49.234;-2.094;2023-03-05T06:12:38;1;1;
73241;PMS5003;65659;49.234;-2.094;2023-03-05T06:15:04;0;0;
73241;PMS5003;65659;49.234;-2.094;2023-03-05T06:17:30;1;1;
73241;PMS5003;65659;49.234;-2.094;2023-03-05T06:19:55;0;0;
73241;PMS5003;65659;49.234;-2.094;2023-03-05T06:22:21;1;1;
73241;PMS5003;65659;49.234;-2.094;2023-03-05T06:24:46;0;0;
73241;PMS5003;65659;49.234;-2.094;2023-03-05T06:27:12;1;1;
73241;PMS5003;65659;49.234;-2.094;2023-03-05T06:29:38;0;0;
73241;PMS5003;65659;49.234;-2.094;2023-03-05T06:32:04;0;0;
73241;PMS5003;65659;49.234;-2.094;2023-03-05T06:34:29;1;1;
73241;PMS5003;65659;49.234;-2.094;2023-03-05T06:36:55;1;1;
73241;PMS5003;65659;49.234;-2.094;2023-03-05T06:39:21;1;1;
73241;PMS5003;65659;49.234;-2.094;2023-03-05T06:41:49;0;0;
73241;PMS5003;65659;49.234;-2.094;2023-03-05T06:44:12;1;1;
73241;PMS5003;65659;49.234;-2.094;2023-03-05T06:46:38;0;0;
73241;PMS5003;65659;49.234;-2.094;2023-03-05T06:49:04;0;0;
73241;PMS5003;65659;49.234;-2.094;2023-03-05T06:51:31;1;1;
73241;PMS5003;65659;49.234;-2.094;2023-03-05T06:53:58;1;1;
73241;PMS5003;65659;49.234;-2.094;2023-03-05T06:56:21;2;2;
73241;PMS5003;65659;49.234;-2.094;2023-03-05T06:58:48;2;2;
73241;PMS5003;65659;49.234;-2.094;2023-03-05T07:01:13;0;0;
73241;PMS5003;65659;49.234;-2.094;2023-03-05T07:03:38;1;0;
73241;PMS5003;65659;49.234;-2.094;2023-03-05T07:06:05;0;0;
73241;PMS5003;65659;49.234;-2.094;2023-03-05T07:08:30;1;1;
73241;PMS5003;65659;49.234;-2.094;2023-03-05T07:10:55;2;2;
73241;PMS5003;65659;49.234;-2.094;2023-03-05T07:13:21;2;2;
73241;PMS5003;65659;49.234;-2.094;2023-03-05T07:15:47;1;1;
73241;PMS5003;65659;49.234;-2.094;2023-03-05T07:18:12;0;0;
73241;PMS5003;65659;49.234;-2.094;2023-03-05T07:20:38;1;1;
73241;PMS5003;65659;49.234;-2.094;2023-03-05T07:23:04;0;0;
73241;PMS5003;65659;49.234;-2.094;2023-03-05T07:25:30;0;0;
73241;PMS5003;65659;49.234;-2.094;2023-03-05T07:27:56;1;1;
73241;PMS5003;65659;49.234;-2.094;2023-03-05T07:30:21;0;0;
73241;PMS5003;65659;49.234;-2.094;2023-03-05T07:32:47;0;0;
73241;PMS5003;65659;49.234;-2.094;2023-03-05T07:35:13;0;0;
73241;PMS5003;65659;49.234;-2.094;2023-03-05T07:37:38;1;1;
73241;PMS5003;65659;49.234;-2.094;2023-03-05T07:40:04;1;1;
73241;PMS5003;65659;49.234;-2.094;2023-03-05T07:42:30;2;2;
73241;PMS5003;65659;49.234;-2.094;2023-03-05T07:44:56;1;1;
73241;PMS5003;65659;49.234;-2.094;2023-03-05T07:47:21;1;1;
73241;PMS5003;65659;49.234;-2.094;2023-03-05T07:49:47;0;0;
73241;PMS5003;65659;49.234;-2.094;2023-03-05T07:52:13;1;1;
73241;PMS5003;65659;49.234;-2.094;2023-03-05T07:54:38;2;2;
73241;PMS5003;65659;49.234;-2.094;2023-03-05T07:57:04;1;0;
73241;PMS5003;65659;49.234;-2.094;2023-03-05T07:59:30;1;1;
73241;PMS5003;65659;49.234;-2.094;2023-03-05T08:01:56;0;0;
73241;PMS5003;65659;49.234;-2.094;2023-03-05T08:04:21;0;0;
73241;PMS5003;65659;49.234;-2.094;2023-03-05T08:06:47;0;0;
73241;PMS5003;65659;49.234;-2.094;2023-03-05T08:09:13;1;1;
73241;PMS5003;65659;49.234;-2.094;2023-03-05T08:11:39;1;1;
73241;PMS5003;65659;49.234;-2.094;2023-03-05T08:14:04;2;2;
73241;PMS5003;65659;49.234;-2.094;2023-03-05T08:16:30;2;1;
73241;PMS5003;65659;49.234;-2.094;2023-03-05T08:18:56;2;2;
73241;PMS5003;65659;49.234;-2.094;2023-03-05T08:21:22;2;2;
73241;PMS5003;65659;49.234;-2.094;2023-03-05T08:23:48;3;3;
73241;PMS5003;65659;49.234;-2.094;2023-03-05T08:26:14;2;2;
73241;PMS5003;65659;49.234;-2.094;2023-03-05T08:28:39;2;2;
73241;PMS5003;65659;49.234;-2.094;2023-03-05T08:31:07;0;0;
73241;PMS5003;65659;49.234;-2.094;2023-03-05T08:33:30;1;1;
73241;PMS5003;65659;49.234;-2.094;2023-03-05T08:35:56;3;1;
73241;PMS5003;65659;49.234;-2.094;2023-03-05T08:38:22;3;2;
73241;PMS5003;65659;49.234;-2.094;2023-03-05T08:40:47;1;1;
73241;PMS5003;65659;49.234;-2.094;2023-03-05T08:43:13;3;2;
73241;PMS5003;65659;49.234;-2.094;2023-03-05T08:45:39;2;2;
73241;PMS5003;65659;49.234;-2.094;2023-03-05T08:48:05;1;1;
73241;PMS5003;65659;49.234;-2.094;2023-03-05T08:50:30;1;1;
73241;PMS5003;65659;49.234;-2.094;2023-03-05T08:52:56;2;2;
73241;PMS5003;65659;49.234;-2.094;2023-03-05T08:55:22;2;2;
73241;PMS5003;65659;49.234;-2.094;2023-03-05T08:57:47;1;1;
73241;PMS5003;65659;49.234;-2.094;2023-03-05T09:00:13;2;2;
73241;PMS5003;65659;49.234;-2.094;2023-03-05T09:02:39;2;1;
73241;PMS5003;65659;49.234;-2.094;2023-03-05T09:05:05;2;2;
73241;PMS5003;65659;49.234;-2.094;2023-03-05T09:07:30;2;2;
73241;PMS5003;65659;49.234;-2.094;2023-03-05T09:09:56;2;2;
73241;PMS5003;65659;49.234;-2.094;2023-03-05T09:12:22;2;2;
73241;PMS5003;65659;49.234;-2.094;2023-03-05T09:14:47;2;2;
73241;PMS5003;65659;49.234;-2.094;2023-03-05T09:17:13;2;2;
73241;PMS5003;65659;49.234;-2.094;2023-03-05T09:19:39;2;2;
73241;PMS5003;65659;49.234;-2.094;2023-03-05T09:22:05;2;2;
73241;PMS5003;65659;49.234;-2.094;2023-03-05T09:24:30;2;2;
73241;PMS5003;65659;49.234;-2.094;2023-03-05T09:26:57;3;3;
73241;PMS5003;65659;49.234;-2.094;2023-03-05T09:29:22;0;0;
73241;PMS5003;65659;49.234;-2.094;2023-03-05T09:31:49;3;3;
73241;PMS5003;65659;49.234;-2.094;2023-03-05T09:34:13;2;2;
73241;PMS5003;65659;49.234;-2.094;2023-03-05T09:36:39;3;3;
73241;PMS5003;65659;49.234;-2.094;2023-03-05T09:39:05;3;2;
73241;PMS5003;65659;49.234;-2.094;2023-03-05T09:41:32;2;2;
73241;PMS5003;65659;49.234;-2.094;2023-03-05T09:43:59;3;3;
73241;PMS5003;65659;49.234;-2.094;2023-03-05T09:46:25;1;1;
73241;PMS5003;65659;49.234;-2.094;2023-03-05T09:48:49;3;2;
73241;PMS5003;65659;49.234;-2.094;2023-03-05T09:51:15;1;1;
73241;PMS5003;65659;49.234;-2.094;2023-03-05T09:53:42;2;2;
73241;PMS5003;65659;49.234;-2.094;2023-03-05T09:56:09;3;3;
73241;PMS5003;65659;49.234;-2.094;2023-03-05T09:58:32;2;2;
73241;PMS5003;65659;49.234;-2.094;2023-03-05T10:00:57;3;3;
73241;PMS5003;65659;49.234;-2.094;2023-03-05T10:03:24;1;1;
73241;PMS5003;65659;49.234;-2.094;2023-03-05T10:05:52;3;3;
73241;PMS5003;65659;49.234;-2.094;2023-03-05T10:08:14;3;3;
73241;PMS5003;65659;49.234;-2.094;2023-03-05T10:10:40;3;2;
73241;PMS5003;65659;49.234;-2.094;2023-03-05T10:13:09;1;1;
73241;PMS5003;65659;49.234;-2.094;2023-03-05T10:15:33;2;2;
73241;PMS5003;65659;49.234;-2.094;2023-03-05T10:17:57;2;2;
73241;PMS5003;65659;49.234;-2.094;2023-03-05T10:22:54;3;3;
73241;PMS5003;65659;49.234;-2.094;2023-03-05T10:25:17;2;2;
73241;PMS5003;65659;49.234;-2.094;2023-03-05T10:27:42;3;3;
73241;PMS5003;65659;49.234;-2.094;2023-03-05T10:30:11;1;1;
73241;PMS5003;65659;49.234;-2.094;2023-03-05T10:32:35;3;3;
73241;PMS5003;65659;49.234;-2.094;2023-03-05T10:35:02;2;2;
73241;PMS5003;65659;49.234;-2.094;2023-03-05T10:37:28;1;1;
73241;PMS5003;65659;49.234;-2.094;2023-03-05T10:39:55;2;2;
73241;PMS5003;65659;49.234;-2.094;2023-03-05T10:42:16;2;2;
73241;PMS5003;65659;49.234;-2.094;2023-03-05T10:44:41;3;3;
73241;PMS5003;65659;49.234;-2.094;2023-03-05T10:47:10;4;4;
73241;PMS5003;65659;49.234;-2.094;2023-03-05T10:49:31;7;7;
73241;PMS5003;65659;49.234;-2.094;2023-03-05T10:51:57;5;5;
73241;PMS5003;65659;49.234;-2.094;2023-03-05T10:54:23;6;5;
73241;PMS5003;65659;49.234;-2.094;2023-03-05T10:56:48;5;5;
73241;PMS5003;65659;49.234;-2.094;2023-03-05T10:59:14;6;6;
73241;PMS5003;65659;49.234;-2.094;2023-03-05T11:01:40;9;9;
73241;PMS5003;65659;49.234;-2.094;2023-03-05T11:04:06;10;9;
73241;PMS5003;65659;49.234;-2.094;2023-03-05T11:06:32;10;10;
73241;PMS5003;65659;49.234;-2.094;2023-03-05T11:11:22;12;12;
73241;PMS5003;65659;49.234;-2.094;2023-03-05T11:13:50;12;11;
73241;PMS5003;65659;49.234;-2.094;2023-03-05T11:16:15;16;15;
73241;PMS5003;65659;49.234;-2.094;2023-03-05T11:18:38;12;11;
73241;PMS5003;65659;49.234;-2.094;2023-03-05T11:21:06;14;13;
73241;PMS5003;65659;49.234;-2.094;2023-03-05T11:23:29;11;11;
73241;PMS5003;65659;49.234;-2.094;2023-03-05T11:25:56;15;14;
73241;PMS5003;65659;49.234;-2.094;2023-03-05T11:28:22;9;9;
73241;PMS5003;65659;49.234;-2.094;2023-03-05T11:33:13;12;12;
73241;PMS5003;65659;49.234;-2.094;2023-03-05T11:35:38;13;12;
73241;PMS5003;65659;49.234;-2.094;2023-03-05T11:38:05;13;12;
73241;PMS5003;65659;49.234;-2.094;2023-03-05T11:40:29;14;13;
73241;PMS5003;65659;49.234;-2.094;2023-03-05T11:42:56;12;11;
73241;PMS5003;65659;49.234;-2.094;2023-03-05T11:45:21;13;12;
73241;PMS5003;65659;49.234;-2.094;2023-03-05T11:47:47;10;10;
73241;PMS5003;65659;49.234;-2.094;2023-03-05T11:50:16;10;10;
73241;PMS5003;65659;49.234;-2.094;2023-03-05T11:52:39;14;13;
73241;PMS5003;65659;49.234;-2.094;2023-03-05T11:55:05;12;12;
73241;PMS5003;65659;49.234;-2.094;2023-03-05T11:57:32;9;9;
73241;PMS5003;65659;49.234;-2.094;2023-03-05T11:59:55;14;14;
73241;PMS5003;65659;49.234;-2.094;2023-03-05T12:02:22;12;11;
73241;PMS5003;65659;49.234;-2.094;2023-03-05T12:04:46;13;12;
73241;PMS5003;65659;49.234;-2.094;2023-03-05T12:07:12;10;10;
73241;PMS5003;65659;49.234;-2.094;2023-03-05T12:09:38;15;12;
73241;PMS5003;65659;49.234;-2.094;2023-03-05T12:12:05;13;12;
73241;PMS5003;65659;49.234;-2.094;2023-03-05T12:14:31;9;9;
73241;PMS5003;65659;49.234;-2.094;2023-03-05T12:16:56;16;14;
73241;PMS5003;65659;49.234;-2.094;2023-03-05T12:19:28;9;9;
73241;PMS5003;65659;49.234;-2.094;2023-03-05T12:21:47;11;11;
73241;PMS5003;65659;49.234;-2.094;2023-03-05T12:29:03;13;12;
73241;PMS5003;65659;49.234;-2.094;2023-03-05T12:33:53;9;9;
73241;PMS5003;65659;49.234;-2.094;2023-03-05T12:38:45;10;10;
73241;PMS5003;65659;49.234;-2.094;2023-03-05T12:43:36;13;12;
73241;PMS5003;65659;49.234;-2.094;2023-03-05T12:48:39;12;10;
73241;PMS5003;65659;49.234;-2.094;2023-03-05T12:50:56;12;11;
73241;PMS5003;65659;49.234;-2.094;2023-03-05T12:53:19;9;9;
73241;PMS5003;65659;49.234;-2.094;2023-03-05T12:55:49;8;8;
73241;PMS5003;65659;49.234;-2.094;2023-03-05T12:58:11;9;9;
73241;PMS5003;65659;49.234;-2.094;2023-03-05T13:00:37;12;12;
73241;PMS5003;65659;49.234;-2.094;2023-03-05T13:03:03;8;8;
73241;PMS5003;65659;49.234;-2.094;2023-03-05T13:05:28;8;8;
73241;PMS5003;65659;49.234;-2.094;2023-03-05T13:08:03;10;10;
73241;PMS5003;65659;49.234;-2.094;2023-03-05T13:10:20;10;9;
73241;PMS5003;65659;49.234;-2.094;2023-03-05T13:12:48;10;9;
73241;PMS5003;65659;49.234;-2.094;2023-03-05T13:15:12;9;9;
73241;PMS5003;65659;49.234;-2.094;2023-03-05T13:17:37;11;10;
73241;PMS5003;65659;49.234;-2.094;2023-03-05T13:20:02;9;9;
73241;PMS5003;65659;49.234;-2.094;2023-03-05T13:22:27;9;8;
73241;PMS5003;65659;49.234;-2.094;2023-03-05T13:27:19;8;8;
73241;PMS5003;65659;49.234;-2.094;2023-03-05T13:29:49;9;9;
73241;PMS5003;65659;49.234;-2.094;2023-03-05T13:32:16;10;9;
73241;PMS5003;65659;49.234;-2.094;2023-03-05T13:34:36;10;9;
73241;PMS5003;65659;49.234;-2.094;2023-03-05T13:37:03;9;9;
73241;PMS5003;65659;49.234;-2.094;2023-03-05T13:39:28;9;9;
73241;PMS5003;65659;49.234;-2.094;2023-03-05T13:41:55;9;9;
73241;PMS5003;65659;49.234;-2.094;2023-03-05T13:44:19;6;6;
73241;PMS5003;65659;49.234;-2.094;2023-03-05T13:46:44;8;8;
73241;PMS5003;65659;49.234;-2.094;2023-03-05T13:49:16;8;7;
73241;PMS5003;65659;49.234;-2.094;2023-03-05T13:51:40;7;7;
73241;PMS5003;65659;49.234;-2.094;2023-03-05T13:54:02;9;9;
73241;PMS5003;65659;49.234;-2.094;2023-03-05T13:56:27;8;8;
73241;PMS5003;65659;49.234;-2.094;2023-03-05T13:58:54;8;7;
73241;PMS5003;65659;49.234;-2.094;2023-03-05T14:01:27;9;9;
73241;PMS5003;65659;49.234;-2.094;2023-03-05T14:03:47;8;8;
73241;PMS5003;65659;49.234;-2.094;2023-03-05T14:06:10;8;8;
73241;PMS5003;65659;49.234;-2.094;2023-03-05T14:08:36;9;9;
73241;PMS5003;65659;49.234;-2.094;2023-03-05T14:13:28;11;10;
73241;PMS5003;65659;49.234;-2.094;2023-03-05T14:16:02;10;9;
73241;PMS5003;65659;49.234;-2.094;2023-03-05T14:18:19;9;9;
73241;PMS5003;65659;49.234;-2.094;2023-03-05T14:25:37;8;8;
73241;PMS5003;65659;49.234;-2.094;2023-03-05T14:28:03;9;9;
73241;PMS5003;65659;49.234;-2.094;2023-03-05T14:30:28;6;6;
73241;PMS5003;65659;49.234;-2.094;2023-03-05T14:32:54;7;6;
73241;PMS5003;65659;49.234;-2.094;2023-03-05T14:35:20;8;8;
73241;PMS5003;65659;49.234;-2.094;2023-03-05T14:37:45;7;7;
73241;PMS5003;65659;49.234;-2.094;2023-03-05T14:42:36;7;7;
73241;PMS5003;65659;49.234;-2.094;2023-03-05T14:47:28;8;8;
73241;PMS5003;65659;49.234;-2.094;2023-03-05T14:49:53;9;8;
73241;PMS5003;65659;49.234;-2.094;2023-03-05T14:52:19;8;7;
73241;PMS5003;65659;49.234;-2.094;2023-03-05T14:54:45;9;8;
73241;PMS5003;65659;49.234;-2.094;2023-03-05T14:57:12;9;9;
73241;PMS5003;65659;49.234;-2.094;2023-03-05T14:59:36;7;7;
73241;PMS5003;65659;49.234;-2.094;2023-03-05T15:02:02;6;6;
73241;PMS5003;65659;49.234;-2.094;2023-03-05T15:04:27;7;7;
73241;PMS5003;65659;49.234;-2.094;2023-03-05T15:06:53;8;8;
73241;PMS5003;65659;49.234;-2.094;2023-03-05T15:09:19;7;7;
73241;PMS5003;65659;49.234;-2.094;2023-03-05T15:11:45;8;7;
73241;PMS5003;65659;49.234;-2.094;2023-03-05T15:14:10;7;7;
73241;PMS5003;65659;49.234;-2.094;2023-03-05T15:16:37;7;7;
73241;PMS5003;65659;49.234;-2.094;2023-03-05T15:19:02;8;7;
73241;PMS5003;65659;49.234;-2.094;2023-03-05T15:21:28;6;6;
73241;PMS5003;65659;49.234;-2.094;2023-03-05T15:23:53;8;8;
73241;PMS5003;65659;49.234;-2.094;2023-03-05T15:26:19;7;7;
73241;PMS5003;65659;49.234;-2.094;2023-03-05T15:28:45;6;6;
73241;PMS5003;65659;49.234;-2.094;2023-03-05T15:31:11;10;9;
73241;PMS5003;65659;49.234;-2.094;2023-03-05T15:33:36;8;8;
73241;PMS5003;65659;49.234;-2.094;2023-03-05T15:36:02;7;6;
73241;PMS5003;65659;49.234;-2.094;2023-03-05T15:38:27;6;6;
73241;PMS5003;65659;49.234;-2.094;2023-03-05T15:40:53;7;7;
73241;PMS5003;65659;49.234;-2.094;2023-03-05T15:43:19;9;8;
73241;PMS5003;65659;49.234;-2.094;2023-03-05T15:45:45;14;13;
73241;PMS5003;65659;49.234;-2.094;2023-03-05T15:48:10;13;11;
73241;PMS5003;65659;49.234;-2.094;2023-03-05T15:50:38;12;12;
73241;PMS5003;65659;49.234;-2.094;2023-03-05T15:53:02;14;14;
73241;PMS5003;65659;49.234;-2.094;2023-03-05T15:55:28;12;12;
73241;PMS5003;65659;49.234;-2.094;2023-03-05T15:57:53;14;14;
73241;PMS5003;65659;49.234;-2.094;2023-03-05T16:00:19;18;16;
73241;PMS5003;65659;49.234;-2.094;2023-03-05T16:02:44;20;19;
73241;PMS5003;65659;49.234;-2.094;2023-03-05T16:05:10;13;13;
73241;PMS5003;65659;49.234;-2.094;2023-03-05T16:07:36;15;15;
73241;PMS5003;65659;49.234;-2.094;2023-03-05T16:10:01;16;16;
73241;PMS5003;65659;49.234;-2.094;2023-03-05T16:12:27;14;13;
73241;PMS5003;65659;49.234;-2.094;2023-03-05T16:14:52;15;14;
73241;PMS5003;65659;49.234;-2.094;2023-03-05T16:17:18;12;12;
73241;PMS5003;65659;49.234;-2.094;2023-03-05T16:19:45;13;12;
73241;PMS5003;65659;49.234;-2.094;2023-03-05T16:22:09;13;12;
73241;PMS5003;65659;49.234;-2.094;2023-03-05T16:24:35;15;14;
73241;PMS5003;65659;49.234;-2.094;2023-03-05T16:27:01;12;11;
73241;PMS5003;65659;49.234;-2.094;2023-03-05T16:29:26;12;11;
73241;PMS5003;65659;49.234;-2.094;2023-03-05T16:31:52;15;14;
73241;PMS5003;65659;49.234;-2.094;2023-03-05T16:34:18;13;13;
73241;PMS5003;65659;49.234;-2.094;2023-03-05T16:36:45;12;12;
73241;PMS5003;65659;49.234;-2.094;2023-03-05T16:39:09;10;10;
73241;PMS5003;65659;49.234;-2.094;2023-03-05T16:41:34;13;13;
73241;PMS5003;65659;49.234;-2.094;2023-03-05T16:44:00;13;11;
73241;PMS5003;65659;49.234;-2.094;2023-03-05T16:46:26;13;13;
73241;PMS5003;65659;49.234;-2.094;2023-03-05T16:48:51;15;14;
73241;PMS5003;65659;49.234;-2.094;2023-03-05T16:51:16;14;13;
73241;PMS5003;65659;49.234;-2.094;2023-03-05T16:53:42;17;14;
73241;PMS5003;65659;49.234;-2.094;2023-03-05T16:56:08;11;11;